Portada
METAR-TAF:

METAR-TAF

Aeropuertos :

Aeropuerto Internacional Qurghonteppa

Qurghonteppa, Tayikistán

latitud: 37-51-44N, longitud: 068-51-46E, altitud: 449 m

Observación

El informe se hizo hace 32 minutos, a las 15:30 UTC
Viento 8 kt del sur-sureste
Temperatura 28°C
Humedad 28%
Presión 1004 hPa
Visibilidad 10 km o más
Escasas nubes a una altura de 13000 ft

METAR: UTDT 041530Z 16004MPS 9999 FEW130 28/08 Q1004 R35/////// RMK QFE714/0952

Hora: 21:02 (16:02 UTC)

Pronóstico

El informe se hizo hace 1 hora y 2 minutos, a las 15:00 UTC
Pronóstico válido del 04 a las 16 UTC al 05 a las 01 UTC
Viento 4 kt con dirección variable
Visibilidad: 6000 m
Escasas nubes a una altura de 6000 ft
Nubes dispersas a una altura de 10000 ft
Temporalmente
del 04 a las 16 UTC al 04 a las 22 UTC
Viento 12 kt del sur
Visibilidad: 3100 m
calima

TAF: UTDT 041500Z 0416/0501 VRB02MPS 6000 FEW060 SCT100 TEMPO 0416/0422 18006MPS 3100 HZ

Observaciones y pronósticos meteorológicos de más de 4000 aeropuertos (mensajes METAR y TAF).

Los puntos amarillos y rojos representan las estaciones disponibles.

Ponga el ratón en el punto deseado para ver el nombre de la estación.

Haga clic para ver las observaciones y los pronósticos meteorológicos.

Para cambiar el mapa : haga clic en los botones verdes con una cruz de color negro para hacer un zoom, en el botón verde con un guión para alejar o en las flechas verdes para mapas adyacentes.


METAR-TAF: